ヤクーツク の空港の天気 - METARとTAF

ヤクーツク空港 ( UEEE / YKS ) - ロシア ヤクーツク
飛行場実況気象(Metar)
観測時間02/17 23:30 YAKT (02/17 14:30 UTC)
風向・風速西北西 2m/s
視程10km以上
天気現象
なし
気温-31℃
湿度75%
気圧1008hPa
METARUEEE 171430Z 29002MPS CAVOK M31/M34 Q1008 R23L/490145 NOSIG RMK QFE747
過去の天気等 Google飛行場航空写真 Wunderground天気予報

過去48時間のMETAR

飛行場予報(TAF)
発表時間: 2/17 23:00 YAKT (2/17 14:00 UTC)
予報対象時間: 18日0時 YAKT ~ 19日6時 YAKT
風向・風速西北西 3m/s
視程10km以上
なし
18日0時 YAKT ~ 18日6時 YAKT に一時的に
視程3200m
天気現象弱い雪
全天を覆う雲 雲底高度 2130m
18日6時 YAKT ~ 18日12時 YAKT に一時的に
視程300m
天気現象
全天を覆う雲 鉛直視程 90m
TAF UEEE 171400Z 1715/1821 29003MPS CAVOK
TEMPO 1715/1721 3200 -SN OVC070
TEMPO 1721/1803 0300 FG VV003